createdAt,value
2023-02-16T00:02:54.455Z,96547.00
2023-02-16T00:06:58.433Z,96546.00
2023-02-16T00:11:18.783Z,96543.00
2023-02-16T00:15:22.006Z,96549.00
2023-02-16T00:19:27.832Z,96535.00
2023-02-16T00:23:30.600Z,96524.00
2023-02-16T00:27:33.634Z,96525.00
2023-02-16T00:31:36.585Z,96523.00
2023-02-16T00:35:40.827Z,96518.00
2023-02-16T00:39:45.346Z,96514.00
2023-02-16T00:43:48.158Z,96515.00
2023-02-16T00:47:53.010Z,96511.00
2023-02-16T00:51:57.368Z,96510.00
2023-02-16T00:56:00.359Z,96506.00
2023-02-16T01:00:09.823Z,96508.00
2023-02-16T01:04:20.334Z,96523.00
2023-02-16T01:08:41.804Z,96518.00
2023-02-16T01:12:44.628Z,96517.00
2023-02-16T01:16:47.402Z,96519.00
2023-02-16T01:20:50.557Z,96525.00
2023-02-16T01:24:54.662Z,96518.00
2023-02-16T01:28:57.499Z,96526.00
2023-02-16T01:33:00.261Z,96515.00
2023-02-16T01:37:04.688Z,96517.00
2023-02-16T01:41:22.627Z,96512.00
2023-02-16T01:45:33.546Z,96518.00
2023-02-16T01:49:36.356Z,96518.00
2023-02-16T01:53:42.937Z,96512.00
2023-02-16T01:57:51.073Z,96514.00
2023-02-16T02:01:56.204Z,96512.00
2023-02-16T02:05:59.009Z,96509.00
2023-02-16T02:10:08.330Z,96505.00
2023-02-16T02:14:17.173Z,96497.00
2023-02-16T02:18:20.065Z,96486.00
2023-02-16T02:23:20.159Z,96470.00
2023-02-16T02:27:27.007Z,96480.00
2023-02-16T02:31:45.580Z,96477.00
2023-02-16T02:35:55.935Z,96484.00
2023-02-16T02:40:06.333Z,96478.00
2023-02-16T02:44:11.584Z,96470.00
2023-02-16T02:48:15.051Z,96462.00
2023-02-16T02:52:18.275Z,96461.00
2023-02-16T02:56:39.167Z,96464.00
2023-02-16T03:00:47.804Z,96468.00
2023-02-16T03:04:53.186Z,96465.00
2023-02-16T03:09:00.835Z,96462.00
2023-02-16T03:13:05.959Z,96442.00
2023-02-16T03:17:31.216Z,96460.00
2023-02-16T03:21:52.805Z,96445.00
2023-02-16T03:26:13.634Z,96460.00
2023-02-16T03:30:19.569Z,96468.00
2023-02-16T03:34:24.366Z,96470.00
2023-02-16T03:38:27.476Z,96472.00
2023-02-16T03:42:30.350Z,96477.00
2023-02-16T03:46:33.254Z,96478.00
2023-02-16T03:50:37.474Z,96479.00
2023-02-16T03:54:40.280Z,96475.00
2023-02-16T03:58:43.150Z,96479.00
2023-02-16T04:02:45.909Z,96490.00
2023-02-16T04:06:50.028Z,96486.00
2023-02-16T04:10:54.213Z,96490.00
2023-02-16T04:14:57.007Z,96486.00
2023-02-16T04:18:59.804Z,96483.00
2023-02-16T04:23:04.261Z,96477.00
2023-02-16T04:27:07.102Z,96469.00
2023-02-16T04:31:10.003Z,96474.00
2023-02-16T04:35:13.128Z,96488.00
2023-02-16T04:39:17.507Z,96475.00
2023-02-16T04:43:20.297Z,96471.00
2023-02-16T04:47:25.841Z,96480.00
2023-02-16T04:51:28.732Z,96484.00
2023-02-16T04:55:32.856Z,96468.00
2023-02-16T04:59:36.058Z,96479.00
2023-02-16T05:03:38.850Z,96472.00
2023-02-16T05:07:41.632Z,96484.00
2023-02-16T05:12:03.061Z,96479.00
2023-02-16T05:16:06.587Z,96488.00
2023-02-16T05:20:10.214Z,96486.00
2023-02-16T05:24:13.293Z,96480.00
2023-02-16T05:28:17.521Z,96493.00
2023-02-16T05:32:21.073Z,96491.00
2023-02-16T05:36:24.878Z,96500.00
2023-02-16T05:40:27.712Z,96500.00
2023-02-16T05:44:31.941Z,96506.00
2023-02-16T05:48:34.788Z,96507.00
2023-02-16T05:52:37.652Z,96502.00
2023-02-16T05:56:40.428Z,96497.00
2023-02-16T06:00:44.554Z,96504.00
2023-02-16T06:04:47.357Z,96515.00
2023-02-16T06:08:50.339Z,96523.00
2023-02-16T06:12:53.125Z,96520.00
2023-02-16T06:16:58.736Z,96526.00
2023-02-16T06:21:01.684Z,96527.00
2023-02-16T06:25:05.006Z,96521.00
2023-02-16T06:29:07.900Z,96508.00
2023-02-16T06:33:12.090Z,96521.00
2023-02-16T06:37:14.945Z,96536.00
2023-02-16T06:41:31.195Z,96528.00
2023-02-16T06:45:34.084Z,96534.00
2023-02-16T06:49:38.280Z,96537.00
2023-02-16T06:53:41.290Z,96553.00
2023-02-16T06:57:44.125Z,96554.00
2023-02-16T07:01:46.921Z,96554.00
2023-02-16T07:05:51.655Z,96548.00
2023-02-16T07:09:54.568Z,96569.00
2023-02-16T07:13:57.367Z,96564.00
2023-02-16T07:18:00.172Z,96566.00
2023-02-16T07:22:05.378Z,96576.00
2023-02-16T07:26:08.527Z,96575.00
2023-02-16T07:30:12.426Z,96583.00
2023-02-16T07:34:15.294Z,96583.00
2023-02-16T07:38:19.497Z,96577.00
2023-02-16T07:42:22.495Z,96593.00
2023-02-16T07:46:27.660Z,96589.00
2023-02-16T07:50:30.463Z,96593.00
2023-02-16T07:54:34.896Z,96601.00
2023-02-16T07:58:38.104Z,96597.00
2023-02-16T08:02:41.402Z,96604.00
2023-02-16T08:06:45.924Z,96612.00
2023-02-16T08:10:50.077Z,96607.00
2023-02-16T08:14:52.934Z,96611.00
2023-02-16T08:18:57.753Z,96621.00
2023-02-16T08:23:00.533Z,96627.00
2023-02-16T08:27:06.286Z,96611.00
2023-02-16T08:31:10.123Z,96613.00
2023-02-16T08:35:13.568Z,96627.00
2023-02-16T08:39:17.993Z,96627.00
2023-02-16T08:43:22.525Z,96619.00
2023-02-16T08:47:25.288Z,96626.00
2023-02-16T08:51:29.255Z,96625.00
2023-02-16T08:55:32.003Z,96615.00
2023-02-16T08:59:36.131Z,96621.00
2023-02-16T09:03:41.225Z,96613.00
2023-02-16T09:07:44.064Z,96629.00
2023-02-16T09:11:47.008Z,96617.00
2023-02-16T09:15:51.576Z,96617.00
2023-02-16T09:19:54.332Z,96630.00
2023-02-16T09:23:58.203Z,96631.00
2023-02-16T09:28:01.062Z,96632.00
2023-02-16T09:32:05.295Z,96631.00
2023-02-16T09:36:10.665Z,96637.00
2023-02-16T09:40:15.113Z,96636.00
2023-02-16T09:44:25.672Z,96643.00
2023-02-16T09:48:36.313Z,96646.00
2023-02-16T09:52:41.771Z,96640.00
2023-02-16T09:56:50.435Z,96654.00
2023-02-16T10:00:57.371Z,96655.00
2023-02-16T10:05:18.270Z,96666.00
2023-02-16T10:09:22.049Z,96666.00
2023-02-16T10:13:34.712Z,96672.00
2023-02-16T10:17:45.240Z,96675.00
2023-02-16T10:21:52.531Z,96669.00
2023-02-16T10:26:00.641Z,96684.00
2023-02-16T10:30:03.520Z,96697.00
2023-02-16T10:34:23.412Z,96691.00
2023-02-16T10:38:35.723Z,96687.00
2023-02-16T10:42:43.842Z,96688.00
2023-02-16T10:46:49.436Z,96691.00
2023-02-16T10:50:58.620Z,96686.00
2023-02-16T10:55:02.829Z,96685.00
2023-02-16T10:59:08.279Z,96687.00
2023-02-16T11:03:15.444Z,96675.00
2023-02-16T11:07:20.148Z,96685.00
2023-02-16T11:11:26.321Z,96680.00
2023-02-16T11:15:29.529Z,96681.00
2023-02-16T11:19:33.493Z,96664.00
2023-02-16T11:23:37.718Z,96661.00
2023-02-16T11:27:52.254Z,96662.00
2023-02-16T11:31:55.669Z,96659.00
2023-02-16T11:35:58.844Z,96654.00
2023-02-16T11:40:05.954Z,96656.00
2023-02-16T11:44:27.109Z,96660.00
2023-02-16T11:48:32.586Z,96645.00
2023-02-16T11:52:35.529Z,96643.00
2023-02-16T11:56:39.299Z,96640.00
2023-02-16T12:00:57.495Z,96636.00
2023-02-16T12:05:19.377Z,96627.00
2023-02-16T12:09:31.239Z,96626.00
2023-02-16T12:13:39.685Z,96621.00
2023-02-16T12:17:56.816Z,96611.00
2023-02-16T12:22:06.035Z,96626.00
2023-02-16T12:26:27.158Z,96606.00
2023-02-16T12:30:41.138Z,96609.00
2023-02-16T12:34:56.894Z,96598.00
2023-02-16T12:39:13.231Z,96609.00
2023-02-16T12:43:32.440Z,96600.00
2023-02-16T12:47:40.709Z,96598.00
2023-02-16T12:51:49.853Z,96605.00
2023-02-16T12:55:56.514Z,96585.00
2023-02-16T13:00:03.850Z,96590.00
2023-02-16T13:04:15.258Z,96582.00
2023-02-16T13:08:30.060Z,96577.00
2023-02-16T13:12:37.218Z,96573.00
2023-02-16T13:16:45.393Z,96566.00
2023-02-16T13:20:50.916Z,96562.00
2023-02-16T13:25:20.997Z,96562.00
2023-02-16T13:29:41.326Z,96571.00
2023-02-16T13:34:04.029Z,96564.00
2023-02-16T13:38:28.351Z,96563.00
2023-02-16T13:42:50.913Z,96559.00
2023-02-16T13:46:55.272Z,96560.00
2023-02-16T13:51:00.739Z,96560.00
2023-02-16T13:55:05.843Z,96560.00
2023-02-16T13:59:57.536Z,96561.00
2023-02-16T14:04:02.842Z,96555.00
2023-02-16T14:08:27.437Z,96547.00
2023-02-16T14:12:34.265Z,96550.00
2023-02-16T14:16:37.164Z,96547.00
2023-02-16T14:20:41.377Z,96550.00
2023-02-16T14:24:44.734Z,96551.00
2023-02-16T14:29:12.481Z,96547.00
2023-02-16T14:33:23.370Z,96535.00
2023-02-16T14:37:38.016Z,96531.00
2023-02-16T14:41:41.550Z,96531.00
2023-02-16T14:46:03.298Z,96535.00
2023-02-16T14:50:23.566Z,96538.00
2023-02-16T14:55:03.424Z,96533.00
2023-02-16T14:59:13.312Z,96528.00
2023-02-16T15:03:18.629Z,96531.00
2023-02-16T15:07:22.633Z,96531.00
2023-02-16T15:11:32.331Z,96526.00
2023-02-16T15:15:46.898Z,96523.00
2023-02-16T15:19:51.434Z,96528.00
2023-02-16T15:23:56.815Z,96519.00
2023-02-16T15:28:04.339Z,96523.00
2023-02-16T15:32:08.248Z,96523.00
2023-02-16T15:36:13.490Z,96517.00
2023-02-16T15:40:26.496Z,96515.00
2023-02-16T15:44:34.235Z,96520.00
2023-02-16T15:48:38.185Z,96518.00
2023-02-16T15:52:41.077Z,96511.00
2023-02-16T15:56:46.085Z,96528.00
2023-02-16T16:00:50.296Z,96519.00
2023-02-16T16:04:56.113Z,96527.00
2023-02-16T16:08:59.265Z,96526.00
2023-02-16T16:13:06.280Z,96517.00
2023-02-16T16:17:16.551Z,96527.00
2023-02-16T16:21:23.251Z,96521.00
2023-02-16T16:25:32.662Z,96533.00
2023-02-16T16:29:40.968Z,96529.00
2023-02-16T16:33:55.873Z,96532.00
2023-02-16T16:37:58.759Z,96529.00
2023-02-16T16:42:26.185Z,96528.00
2023-02-16T16:46:30.982Z,96525.00
2023-02-16T16:50:39.408Z,96529.00
2023-02-16T16:54:42.623Z,96537.00
2023-02-16T16:58:49.434Z,96531.00
2023-02-16T17:02:52.732Z,96537.00
2023-02-16T17:06:56.841Z,96530.00
2023-02-16T17:11:00.007Z,96532.00
2023-02-16T17:15:03.737Z,96535.00
2023-02-16T17:19:06.504Z,96533.00
2023-02-16T17:23:12.940Z,96537.00
2023-02-16T17:27:15.710Z,96541.00
2023-02-16T17:31:18.613Z,96542.00
2023-02-16T17:35:21.508Z,96535.00
2023-02-16T17:39:25.813Z,96551.00
2023-02-16T17:43:29.104Z,96540.00
2023-02-16T17:47:31.880Z,96542.00
2023-02-16T17:51:36.367Z,96539.00
2023-02-16T17:55:40.763Z,96543.00
2023-02-16T17:59:43.878Z,96541.00
2023-02-16T18:03:46.793Z,96543.00
2023-02-16T18:07:49.602Z,96540.00
2023-02-16T18:11:53.845Z,96547.00
2023-02-16T18:15:57.043Z,96531.00
2023-02-16T18:19:59.802Z,96536.00
2023-02-16T18:24:02.592Z,96536.00
2023-02-16T18:28:06.826Z,96539.00
2023-02-16T18:32:09.643Z,96536.00
2023-02-16T18:36:12.483Z,96538.00
2023-02-16T18:40:17.718Z,96542.00
2023-02-16T18:44:21.881Z,96551.00
2023-02-16T18:48:24.752Z,96551.00
2023-02-16T18:52:27.585Z,96547.00
2023-02-16T18:56:30.390Z,96542.00
2023-02-16T19:00:34.578Z,96547.00
2023-02-16T19:04:37.477Z,96553.00
2023-02-16T19:08:40.317Z,96546.00
2023-02-16T19:12:43.172Z,96557.00
2023-02-16T19:16:47.717Z,96553.00
2023-02-16T19:20:50.587Z,96550.00
2023-02-16T19:24:53.381Z,96559.00
2023-02-16T19:28:56.174Z,96562.00
2023-02-16T19:33:00.368Z,96555.00
2023-02-16T19:37:03.388Z,96555.00
2023-02-16T19:41:09.994Z,96552.00
2023-02-16T19:45:13.057Z,96551.00
2023-02-16T19:49:17.205Z,96553.00
2023-02-16T19:53:19.999Z,96560.00
2023-02-16T19:57:22.812Z,96561.00
2023-02-16T20:01:27.908Z,96558.00
2023-02-16T20:05:32.125Z,96553.00
2023-02-16T20:09:36.116Z,96555.00
2023-02-16T20:13:39.627Z,96559.00
2023-02-16T20:17:42.527Z,96551.00
2023-02-16T20:21:46.784Z,96556.00
2023-02-16T20:25:49.539Z,96560.00
2023-02-16T20:29:52.357Z,96559.00
2023-02-16T20:33:56.094Z,96552.00
2023-02-16T20:38:00.278Z,96547.00
2023-02-16T20:42:03.104Z,96549.00
2023-02-16T20:46:08.040Z,96544.00
2023-02-16T20:50:12.027Z,96535.00
2023-02-16T20:54:16.179Z,96533.00
2023-02-16T20:58:18.942Z,96532.00
2023-02-16T21:02:21.781Z,96527.00
2023-02-16T21:06:25.675Z,96529.00
2023-02-16T21:10:29.908Z,96526.00
2023-02-16T21:14:32.705Z,96527.00
2023-02-16T21:18:36.867Z,96528.00
2023-02-16T21:22:40.570Z,96526.00
2023-02-16T21:26:44.825Z,96543.00
2023-02-16T21:30:47.573Z,96535.00
2023-02-16T21:34:50.338Z,96534.00
2023-02-16T21:38:53.500Z,96527.00
2023-02-16T21:42:57.654Z,96523.00
2023-02-16T21:47:17.704Z,96524.00
2023-02-16T21:51:24.069Z,96525.00
2023-02-16T21:55:44.423Z,96523.00
2023-02-16T21:59:48.543Z,96525.00
2023-02-16T22:03:56.020Z,96523.00
2023-02-16T22:07:59.370Z,96528.00
2023-02-16T22:12:02.302Z,96520.00
2023-02-16T22:16:12.444Z,96521.00
2023-02-16T22:20:15.382Z,96515.00
2023-02-16T22:24:20.180Z,96518.00
2023-02-16T22:28:22.982Z,96513.00
2023-02-16T22:32:27.220Z,96509.00
2023-02-16T22:36:30.480Z,96513.00
2023-02-16T22:40:33.365Z,96510.00
2023-02-16T22:44:36.227Z,96512.00
2023-02-16T22:48:40.889Z,96511.00
2023-02-16T22:52:43.734Z,96514.00
2023-02-16T22:56:46.583Z,96508.00
2023-02-16T23:00:50.182Z,96493.00
2023-02-16T23:04:58.557Z,96513.00
2023-02-16T23:09:03.497Z,96511.00
2023-02-16T23:13:07.565Z,96505.00
2023-02-16T23:17:10.426Z,96501.00
2023-02-16T23:21:18.146Z,96501.00
2023-02-16T23:25:36.196Z,96494.00
2023-02-16T23:29:39.014Z,96496.00
2023-02-16T23:33:42.059Z,96499.00
2023-02-16T23:37:47.638Z,96507.00
2023-02-16T23:41:50.529Z,96498.00
2023-02-16T23:45:53.996Z,96506.00
2023-02-16T23:49:56.862Z,96498.00
2023-02-16T23:54:01.073Z,96499.00
2023-02-16T23:58:03.951Z,96499.00
